sensor_id;sensor_type;location;lat;lon;timestamp;P1;durP1;ratioP1;P2;durP2;ratioP2
73954;SDS011;62306;52.516;13.290;2023-06-10T00:01:36;12.05;;;5.63;;
73954;SDS011;62306;52.516;13.290;2023-06-10T00:04:04;11.75;;;5.10;;
73954;SDS011;62306;52.516;13.290;2023-06-10T00:06:31;14.27;;;5.53;;
73954;SDS011;62306;52.516;13.290;2023-06-10T00:09:00;16.95;;;5.35;;
73954;SDS011;62306;52.516;13.290;2023-06-10T00:11:29;10.10;;;4.93;;
73954;SDS011;62306;52.516;13.290;2023-06-10T00:13:56;13.52;;;5.50;;
73954;SDS011;62306;52.516;13.290;2023-06-10T00:16:23;14.57;;;5.60;;
73954;SDS011;62306;52.516;13.290;2023-06-10T00:18:50;13.10;;;5.63;;
73954;SDS011;62306;52.516;13.290;2023-06-10T00:21:18;15.45;;;5.90;;
73954;SDS011;62306;52.516;13.290;2023-06-10T00:23:45;17.55;;;6.53;;
73954;SDS011;62306;52.516;13.290;2023-06-10T00:26:12;12.85;;;5.30;;
73954;SDS011;62306;52.516;13.290;2023-06-10T00:28:39;16.33;;;5.15;;
73954;SDS011;62306;52.516;13.290;2023-06-10T00:31:06;11.45;;;4.93;;
73954;SDS011;62306;52.516;13.290;2023-06-10T00:33:33;15.70;;;5.97;;
73954;SDS011;62306;52.516;13.290;2023-06-10T00:36:00;14.13;;;5.68;;
73954;SDS011;62306;52.516;13.290;2023-06-10T00:38:28;10.30;;;4.93;;
73954;SDS011;62306;52.516;13.290;2023-06-10T00:40:55;14.88;;;5.53;;
73954;SDS011;62306;52.516;13.290;2023-06-10T00:43:22;11.13;;;5.20;;
73954;SDS011;62306;52.516;13.290;2023-06-10T00:45:49;14.40;;;5.78;;
73954;SDS011;62306;52.516;13.290;2023-06-10T00:48:17;12.88;;;5.28;;
73954;SDS011;62306;52.516;13.290;2023-06-10T00:50:44;14.38;;;5.65;;
73954;SDS011;62306;52.516;13.290;2023-06-10T00:53:12;14.52;;;5.53;;
73954;SDS011;62306;52.516;13.290;2023-06-10T00:55:41;17.58;;;5.88;;
73954;SDS011;62306;52.516;13.290;2023-06-10T00:58:08;13.88;;;5.32;;
73954;SDS011;62306;52.516;13.290;2023-06-10T01:00:35;14.45;;;5.65;;
73954;SDS011;62306;52.516;13.290;2023-06-10T01:03:02;14.95;;;5.55;;
73954;SDS011;62306;52.516;13.290;2023-06-10T01:05:32;16.38;;;5.53;;
73954;SDS011;62306;52.516;13.290;2023-06-10T01:08:00;18.73;;;6.60;;
73954;SDS011;62306;52.516;13.290;2023-06-10T01:10:33;15.32;;;5.78;;
73954;SDS011;62306;52.516;13.290;2023-06-10T01:13:06;12.18;;;5.47;;
73954;SDS011;62306;52.516;13.290;2023-06-10T01:15:36;10.60;;;5.63;;
73954;SDS011;62306;52.516;13.290;2023-06-10T01:18:04;11.40;;;4.85;;
73954;SDS011;62306;52.516;13.290;2023-06-10T01:20:34;12.70;;;5.40;;
73954;SDS011;62306;52.516;13.290;2023-06-10T01:23:07;11.63;;;5.55;;
73954;SDS011;62306;52.516;13.290;2023-06-10T01:25:35;16.08;;;5.88;;
73954;SDS011;62306;52.516;13.290;2023-06-10T01:28:04;15.93;;;5.70;;
73954;SDS011;62306;52.516;13.290;2023-06-10T01:30:37;11.38;;;4.75;;
73954;SDS011;62306;52.516;13.290;2023-06-10T01:33:10;11.65;;;5.22;;
73954;SDS011;62306;52.516;13.290;2023-06-10T01:35:40;13.02;;;5.45;;
73954;SDS011;62306;52.516;13.290;2023-06-10T01:38:11;16.38;;;5.97;;
73954;SDS011;62306;52.516;13.290;2023-06-10T01:40:41;14.60;;;5.70;;
73954;SDS011;62306;52.516;13.290;2023-06-10T01:43:08;13.63;;;4.55;;
73954;SDS011;62306;52.516;13.290;2023-06-10T01:45:35;16.77;;;5.38;;
73954;SDS011;62306;52.516;13.290;2023-06-10T01:48:02;16.30;;;5.85;;
73954;SDS011;62306;52.516;13.290;2023-06-10T01:50:29;12.73;;;5.82;;
73954;SDS011;62306;52.516;13.290;2023-06-10T01:52:56;14.05;;;5.53;;
73954;SDS011;62306;52.516;13.290;2023-06-10T01:55:25;14.95;;;6.03;;
73954;SDS011;62306;52.516;13.290;2023-06-10T01:57:52;16.92;;;5.68;;
73954;SDS011;62306;52.516;13.290;2023-06-10T02:00:19;15.35;;;5.80;;
73954;SDS011;62306;52.516;13.290;2023-06-10T02:02:46;21.75;;;5.88;;
73954;SDS011;62306;52.516;13.290;2023-06-10T02:05:13;11.10;;;4.85;;
73954;SDS011;62306;52.516;13.290;2023-06-10T02:07:40;11.20;;;5.18;;
73954;SDS011;62306;52.516;13.290;2023-06-10T02:10:07;13.90;;;5.68;;
73954;SDS011;62306;52.516;13.290;2023-06-10T02:12:36;18.10;;;6.78;;
73954;SDS011;62306;52.516;13.290;2023-06-10T02:15:03;14.80;;;5.65;;
73954;SDS011;62306;52.516;13.290;2023-06-10T02:17:30;21.75;;;6.10;;
73954;SDS011;62306;52.516;13.290;2023-06-10T02:19:57;15.57;;;5.03;;
73954;SDS011;62306;52.516;13.290;2023-06-10T02:22:25;16.00;;;5.63;;
73954;SDS011;62306;52.516;13.290;2023-06-10T02:24:52;13.45;;;5.43;;
73954;SDS011;62306;52.516;13.290;2023-06-10T02:27:18;13.52;;;5.57;;
73954;SDS011;62306;52.516;13.290;2023-06-10T02:29:47;15.75;;;5.93;;
73954;SDS011;62306;52.516;13.290;2023-06-10T02:32:13;13.38;;;6.07;;
73954;SDS011;62306;52.516;13.290;2023-06-10T02:34:40;13.05;;;6.63;;
73954;SDS011;62306;52.516;13.290;2023-06-10T02:37:08;17.05;;;5.32;;
73954;SDS011;62306;52.516;13.290;2023-06-10T02:39:35;13.35;;;5.43;;
73954;SDS011;62306;52.516;13.290;2023-06-10T02:42:02;17.40;;;5.80;;
73954;SDS011;62306;52.516;13.290;2023-06-10T02:44:30;14.05;;;5.30;;
73954;SDS011;62306;52.516;13.290;2023-06-10T02:46:58;10.40;;;5.28;;
73954;SDS011;62306;52.516;13.290;2023-06-10T02:49:25;14.38;;;5.82;;
73954;SDS011;62306;52.516;13.290;2023-06-10T02:51:53;14.55;;;5.55;;
73954;SDS011;62306;52.516;13.290;2023-06-10T02:54:21;17.83;;;6.03;;
73954;SDS011;62306;52.516;13.290;2023-06-10T02:56:48;11.48;;;5.68;;
73954;SDS011;62306;52.516;13.290;2023-06-10T02:59:15;17.42;;;5.53;;
73954;SDS011;62306;52.516;13.290;2023-06-10T03:01:42;16.70;;;5.70;;
73954;SDS011;62306;52.516;13.290;2023-06-10T03:04:11;11.57;;;5.40;;
73954;SDS011;62306;52.516;13.290;2023-06-10T03:06:39;17.83;;;5.63;;
73954;SDS011;62306;52.516;13.290;2023-06-10T03:09:07;14.30;;;5.22;;
73954;SDS011;62306;52.516;13.290;2023-06-10T03:11:34;18.38;;;6.00;;
73954;SDS011;62306;52.516;13.290;2023-06-10T03:14:01;11.68;;;5.60;;
73954;SDS011;62306;52.516;13.290;2023-06-10T03:16:28;13.73;;;6.18;;
73954;SDS011;62306;52.516;13.290;2023-06-10T03:18:56;12.32;;;6.13;;
73954;SDS011;62306;52.516;13.290;2023-06-10T03:21:24;13.68;;;6.25;;
73954;SDS011;62306;52.516;13.290;2023-06-10T03:23:52;14.85;;;5.90;;
73954;SDS011;62306;52.516;13.290;2023-06-10T03:26:18;17.02;;;6.30;;
73954;SDS011;62306;52.516;13.290;2023-06-10T03:28:46;11.98;;;5.82;;
73954;SDS011;62306;52.516;13.290;2023-06-10T03:31:13;11.55;;;6.05;;
73954;SDS011;62306;52.516;13.290;2023-06-10T03:33:42;19.50;;;5.97;;
73954;SDS011;62306;52.516;13.290;2023-06-10T03:36:08;15.23;;;6.45;;
73954;SDS011;62306;52.516;13.290;2023-06-10T03:38:37;14.20;;;5.88;;
73954;SDS011;62306;52.516;13.290;2023-06-10T03:41:04;16.02;;;5.97;;
73954;SDS011;62306;52.516;13.290;2023-06-10T03:43:30;15.32;;;5.97;;
73954;SDS011;62306;52.516;13.290;2023-06-10T03:45:57;13.73;;;6.47;;
73954;SDS011;62306;52.516;13.290;2023-06-10T03:48:24;16.17;;;7.00;;
73954;SDS011;62306;52.516;13.290;2023-06-10T03:50:51;13.93;;;6.03;;
73954;SDS011;62306;52.516;13.290;2023-06-10T03:53:18;16.92;;;6.20;;
73954;SDS011;62306;52.516;13.290;2023-06-10T03:55:46;15.73;;;6.10;;
73954;SDS011;62306;52.516;13.290;2023-06-10T03:58:13;15.38;;;5.60;;
73954;SDS011;62306;52.516;13.290;2023-06-10T04:00:40;13.27;;;6.75;;
73954;SDS011;62306;52.516;13.290;2023-06-10T04:03:07;15.05;;;6.63;;
73954;SDS011;62306;52.516;13.290;2023-06-10T04:05:39;17.90;;;7.47;;
73954;SDS011;62306;52.516;13.290;2023-06-10T04:08:07;14.13;;;6.53;;
73954;SDS011;62306;52.516;13.290;2023-06-10T04:10:34;13.40;;;5.97;;
73954;SDS011;62306;52.516;13.290;2023-06-10T04:13:02;17.80;;;6.53;;
73954;SDS011;62306;52.516;13.290;2023-06-10T04:15:30;14.43;;;6.68;;
73954;SDS011;62306;52.516;13.290;2023-06-10T04:17:58;14.93;;;6.40;;
73954;SDS011;62306;52.516;13.290;2023-06-10T04:20:26;15.18;;;6.53;;
73954;SDS011;62306;52.516;13.290;2023-06-10T04:22:53;15.23;;;6.28;;
73954;SDS011;62306;52.516;13.290;2023-06-10T04:25:20;28.80;;;7.53;;
73954;SDS011;62306;52.516;13.290;2023-06-10T04:27:47;16.38;;;6.95;;
73954;SDS011;62306;52.516;13.290;2023-06-10T04:30:15;16.80;;;7.00;;
73954;SDS011;62306;52.516;13.290;2023-06-10T04:32:42;11.80;;;6.07;;
73954;SDS011;62306;52.516;13.290;2023-06-10T04:35:11;13.88;;;5.95;;
73954;SDS011;62306;52.516;13.290;2023-06-10T04:37:39;16.65;;;6.07;;
73954;SDS011;62306;52.516;13.290;2023-06-10T04:40:06;13.23;;;6.30;;
73954;SDS011;62306;52.516;13.290;2023-06-10T04:42:34;13.52;;;6.50;;
73954;SDS011;62306;52.516;13.290;2023-06-10T04:45:01;14.95;;;6.22;;
73954;SDS011;62306;52.516;13.290;2023-06-10T04:47:30;11.75;;;6.15;;
73954;SDS011;62306;52.516;13.290;2023-06-10T04:49:58;17.05;;;6.35;;
73954;SDS011;62306;52.516;13.290;2023-06-10T04:52:25;14.68;;;6.18;;
73954;SDS011;62306;52.516;13.290;2023-06-10T04:54:52;13.82;;;6.60;;
73954;SDS011;62306;52.516;13.290;2023-06-10T04:57:19;12.50;;;6.28;;
73954;SDS011;62306;52.516;13.290;2023-06-10T04:59:46;17.50;;;6.75;;
73954;SDS011;62306;52.516;13.290;2023-06-10T05:02:13;17.15;;;7.00;;
73954;SDS011;62306;52.516;13.290;2023-06-10T05:04:41;21.10;;;7.30;;
73954;SDS011;62306;52.516;13.290;2023-06-10T05:07:08;20.30;;;6.38;;
73954;SDS011;62306;52.516;13.290;2023-06-10T05:09:35;16.15;;;6.63;;
73954;SDS011;62306;52.516;13.290;2023-06-10T05:12:02;14.27;;;6.70;;
73954;SDS011;62306;52.516;13.290;2023-06-10T05:14:30;22.00;;;6.78;;
73954;SDS011;62306;52.516;13.290;2023-06-10T05:16:57;18.95;;;6.88;;
73954;SDS011;62306;52.516;13.290;2023-06-10T05:19:24;16.88;;;6.85;;
73954;SDS011;62306;52.516;13.290;2023-06-10T05:21:53;20.85;;;7.47;;
73954;SDS011;62306;52.516;13.290;2023-06-10T05:24:20;11.68;;;6.53;;
73954;SDS011;62306;52.516;13.290;2023-06-10T05:26:48;15.27;;;7.20;;
73954;SDS011;62306;52.516;13.290;2023-06-10T05:29:15;17.20;;;6.80;;
73954;SDS011;62306;52.516;13.290;2023-06-10T05:31:42;18.70;;;6.63;;
73954;SDS011;62306;52.516;13.290;2023-06-10T05:34:09;17.85;;;6.70;;
73954;SDS011;62306;52.516;13.290;2023-06-10T05:36:36;13.23;;;7.03;;
73954;SDS011;62306;52.516;13.290;2023-06-10T05:39:04;21.42;;;7.32;;
73954;SDS011;62306;52.516;13.290;2023-06-10T05:41:31;10.40;;;6.05;;
73954;SDS011;62306;52.516;13.290;2023-06-10T05:43:58;14.18;;;6.70;;
73954;SDS011;62306;52.516;13.290;2023-06-10T05:46:24;14.32;;;7.38;;
73954;SDS011;62306;52.516;13.290;2023-06-10T05:48:51;11.68;;;6.05;;
73954;SDS011;62306;52.516;13.290;2023-06-10T05:51:18;11.05;;;6.03;;
73954;SDS011;62306;52.516;13.290;2023-06-10T05:53:45;14.02;;;6.25;;
73954;SDS011;62306;52.516;13.290;2023-06-10T05:56:13;9.55;;;5.95;;
73954;SDS011;62306;52.516;13.290;2023-06-10T05:58:40;12.98;;;6.15;;
73954;SDS011;62306;52.516;13.290;2023-06-10T06:01:07;10.48;;;6.22;;
73954;SDS011;62306;52.516;13.290;2023-06-10T06:03:34;9.55;;;5.57;;
73954;SDS011;62306;52.516;13.290;2023-06-10T06:06:01;19.98;;;5.95;;
73954;SDS011;62306;52.516;13.290;2023-06-10T06:08:29;12.77;;;6.68;;
73954;SDS011;62306;52.516;13.290;2023-06-10T06:10:56;16.95;;;6.95;;
73954;SDS011;62306;52.516;13.290;2023-06-10T06:13:24;13.15;;;6.60;;
73954;SDS011;62306;52.516;13.290;2023-06-10T06:15:51;13.93;;;6.25;;
73954;SDS011;62306;52.516;13.290;2023-06-10T06:18:18;14.50;;;6.43;;
73954;SDS011;62306;52.516;13.290;2023-06-10T06:20:44;18.30;;;7.55;;
73954;SDS011;62306;52.516;13.290;2023-06-10T06:23:11;13.93;;;6.20;;
73954;SDS011;62306;52.516;13.290;2023-06-10T06:25:38;11.45;;;6.95;;
73954;SDS011;62306;52.516;13.290;2023-06-10T06:28:05;13.43;;;7.32;;
73954;SDS011;62306;52.516;13.290;2023-06-10T06:30:35;14.95;;;7.10;;
73954;SDS011;62306;52.516;13.290;2023-06-10T06:33:02;12.30;;;7.10;;
73954;SDS011;62306;52.516;13.290;2023-06-10T06:35:30;17.52;;;7.03;;
73954;SDS011;62306;52.516;13.290;2023-06-10T06:37:57;19.77;;;6.88;;
73954;SDS011;62306;52.516;13.290;2023-06-10T06:40:24;18.80;;;7.22;;
73954;SDS011;62306;52.516;13.290;2023-06-10T06:42:51;17.83;;;7.53;;
73954;SDS011;62306;52.516;13.290;2023-06-10T06:45:18;17.02;;;6.63;;
73954;SDS011;62306;52.516;13.290;2023-06-10T06:47:47;14.00;;;7.65;;
73954;SDS011;62306;52.516;13.290;2023-06-10T06:50:14;9.50;;;6.95;;
73954;SDS011;62306;52.516;13.290;2023-06-10T06:52:41;13.57;;;7.15;;
73954;SDS011;62306;52.516;13.290;2023-06-10T06:55:08;15.48;;;7.20;;
73954;SDS011;62306;52.516;13.290;2023-06-10T06:57:35;12.05;;;6.97;;
73954;SDS011;62306;52.516;13.290;2023-06-10T07:00:03;15.68;;;7.78;;
73954;SDS011;62306;52.516;13.290;2023-06-10T07:02:31;14.05;;;7.20;;
73954;SDS011;62306;52.516;13.290;2023-06-10T07:04:59;13.27;;;7.55;;
73954;SDS011;62306;52.516;13.290;2023-06-10T07:07:26;16.77;;;7.07;;
73954;SDS011;62306;52.516;13.290;2023-06-10T07:09:53;12.43;;;7.03;;
73954;SDS011;62306;52.516;13.290;2023-06-10T07:12:20;14.15;;;7.32;;
73954;SDS011;62306;52.516;13.290;2023-06-10T07:14:49;13.55;;;7.35;;
73954;SDS011;62306;52.516;13.290;2023-06-10T07:17:16;12.82;;;7.32;;
73954;SDS011;62306;52.516;13.290;2023-06-10T07:19:43;12.32;;;7.00;;
73954;SDS011;62306;52.516;13.290;2023-06-10T07:22:11;11.25;;;6.63;;
73954;SDS011;62306;52.516;13.290;2023-06-10T07:24:38;20.38;;;7.10;;
73954;SDS011;62306;52.516;13.290;2023-06-10T07:27:06;13.27;;;6.97;;
73954;SDS011;62306;52.516;13.290;2023-06-10T07:29:33;13.88;;;7.53;;
73954;SDS011;62306;52.516;13.290;2023-06-10T07:32:00;9.70;;;6.80;;
73954;SDS011;62306;52.516;13.290;2023-06-10T07:34:28;12.77;;;7.25;;
73954;SDS011;62306;52.516;13.290;2023-06-10T07:36:55;13.80;;;6.70;;
73954;SDS011;62306;52.516;13.290;2023-06-10T07:39:23;17.63;;;7.28;;
73954;SDS011;62306;52.516;13.290;2023-06-10T07:41:50;12.98;;;6.93;;
73954;SDS011;62306;52.516;13.290;2023-06-10T07:44:18;15.35;;;7.43;;
73954;SDS011;62306;52.516;13.290;2023-06-10T07:46:45;12.45;;;7.25;;
73954;SDS011;62306;52.516;13.290;2023-06-10T07:49:12;20.33;;;7.38;;
73954;SDS011;62306;52.516;13.290;2023-06-10T07:51:39;11.07;;;6.78;;
73954;SDS011;62306;52.516;13.290;2023-06-10T07:54:06;14.93;;;7.20;;
73954;SDS011;62306;52.516;13.290;2023-06-10T07:56:35;12.73;;;7.35;;
73954;SDS011;62306;52.516;13.290;2023-06-10T07:59:02;10.98;;;7.25;;
73954;SDS011;62306;52.516;13.290;2023-06-10T08:01:28;16.88;;;7.90;;
73954;SDS011;62306;52.516;13.290;2023-06-10T08:03:56;15.23;;;7.53;;
73954;SDS011;62306;52.516;13.290;2023-06-10T08:06:23;17.80;;;7.57;;
73954;SDS011;62306;52.516;13.290;2023-06-10T08:08:50;18.73;;;7.47;;
73954;SDS011;62306;52.516;13.290;2023-06-10T08:11:17;13.15;;;6.93;;
73954;SDS011;62306;52.516;13.290;2023-06-10T08:13:45;21.10;;;7.97;;
73954;SDS011;62306;52.516;13.290;2023-06-10T08:16:12;17.30;;;8.18;;
73954;SDS011;62306;52.516;13.290;2023-06-10T08:18:40;14.05;;;7.70;;
73954;SDS011;62306;52.516;13.290;2023-06-10T08:21:07;15.18;;;6.80;;
73954;SDS011;62306;52.516;13.290;2023-06-10T08:23:33;16.90;;;7.88;;
73954;SDS011;62306;52.516;13.290;2023-06-10T08:26:00;15.60;;;8.23;;
73954;SDS011;62306;52.516;13.290;2023-06-10T08:28:27;13.40;;;7.57;;
73954;SDS011;62306;52.516;13.290;2023-06-10T08:30:56;14.68;;;7.50;;
73954;SDS011;62306;52.516;13.290;2023-06-10T08:33:22;17.00;;;7.93;;
73954;SDS011;62306;52.516;13.290;2023-06-10T08:35:49;18.73;;;8.73;;
73954;SDS011;62306;52.516;13.290;2023-06-10T08:38:16;13.55;;;7.00;;
73954;SDS011;62306;52.516;13.290;2023-06-10T08:40:43;22.52;;;8.52;;
73954;SDS011;62306;52.516;13.290;2023-06-10T08:43:10;11.93;;;7.90;;
73954;SDS011;62306;52.516;13.290;2023-06-10T08:45:47;15.20;;;7.80;;
73954;SDS011;62306;52.516;13.290;2023-06-10T08:48:17;10.80;;;8.07;;
73954;SDS011;62306;52.516;13.290;2023-06-10T08:50:47;13.30;;;7.57;;
73954;SDS011;62306;52.516;13.290;2023-06-10T08:53:17;15.02;;;7.75;;
73954;SDS011;62306;52.516;13.290;2023-06-10T08:55:46;17.63;;;7.63;;
73954;SDS011;62306;52.516;13.290;2023-06-10T08:58:17;12.52;;;7.47;;
73954;SDS011;62306;52.516;13.290;2023-06-10T09:00:44;15.15;;;7.38;;
73954;SDS011;62306;52.516;13.290;2023-06-10T09:03:11;15.40;;;7.25;;
73954;SDS011;62306;52.516;13.290;2023-06-10T09:05:40;16.08;;;7.82;;
73954;SDS011;62306;52.516;13.290;2023-06-10T09:08:08;13.00;;;7.60;;
73954;SDS011;62306;52.516;13.290;2023-06-10T09:10:35;11.23;;;8.32;;
73954;SDS011;62306;52.516;13.290;2023-06-10T09:13:02;20.50;;;7.50;;
73954;SDS011;62306;52.516;13.290;2023-06-10T09:15:29;15.07;;;7.85;;
73954;SDS011;62306;52.516;13.290;2023-06-10T09:17:56;15.00;;;6.88;;
73954;SDS011;62306;52.516;13.290;2023-06-10T09:20:24;14.32;;;7.30;;
73954;SDS011;62306;52.516;13.290;2023-06-10T09:22:53;12.18;;;7.60;;
73954;SDS011;62306;52.516;13.290;2023-06-10T09:25:20;11.65;;;7.78;;
73954;SDS011;62306;52.516;13.290;2023-06-10T09:28:02;19.67;;;7.53;;
73954;SDS011;62306;52.516;13.290;2023-06-10T09:30:29;12.90;;;7.45;;
73954;SDS011;62306;52.516;13.290;2023-06-10T09:32:58;9.95;;;6.95;;
73954;SDS011;62306;52.516;13.290;2023-06-10T09:35:28;16.65;;;7.30;;
73954;SDS011;62306;52.516;13.290;2023-06-10T09:37:57;15.68;;;7.72;;
73954;SDS011;62306;52.516;13.290;2023-06-10T09:40:26;14.55;;;7.53;;
73954;SDS011;62306;52.516;13.290;2023-06-10T09:42:54;9.60;;;6.70;;
73954;SDS011;62306;52.516;13.290;2023-06-10T09:45:22;12.30;;;7.75;;
73954;SDS011;62306;52.516;13.290;2023-06-10T09:47:53;12.82;;;7.45;;
73954;SDS011;62306;52.516;13.290;2023-06-10T09:50:20;15.00;;;7.25;;
73954;SDS011;62306;52.516;13.290;2023-06-10T09:52:47;13.18;;;7.45;;
73954;SDS011;62306;52.516;13.290;2023-06-10T09:55:16;15.82;;;7.70;;
73954;SDS011;62306;52.516;13.290;2023-06-10T09:57:44;14.48;;;7.43;;
73954;SDS011;62306;52.516;13.290;2023-06-10T10:00:15;14.95;;;8.10;;
73954;SDS011;62306;52.516;13.290;2023-06-10T10:02:46;18.70;;;7.32;;
73954;SDS011;62306;52.516;13.290;2023-06-10T10:05:14;18.43;;;7.87;;
73954;SDS011;62306;52.516;13.290;2023-06-10T10:07:42;16.88;;;7.57;;
73954;SDS011;62306;52.516;13.290;2023-06-10T10:10:09;14.23;;;7.25;;
73954;SDS011;62306;52.516;13.290;2023-06-10T10:12:39;15.27;;;7.93;;
73954;SDS011;62306;52.516;13.290;2023-06-10T10:15:06;14.82;;;8.20;;
73954;SDS011;62306;52.516;13.290;2023-06-10T10:17:35;18.83;;;8.05;;
73954;SDS011;62306;52.516;13.290;2023-06-10T10:20:06;17.13;;;8.27;;
73954;SDS011;62306;52.516;13.290;2023-06-10T10:22:36;14.90;;;8.35;;
73954;SDS011;62306;52.516;13.290;2023-06-10T10:25:05;12.27;;;8.48;;
73954;SDS011;62306;52.516;13.290;2023-06-10T10:27:40;12.20;;;8.73;;
73954;SDS011;62306;52.516;13.290;2023-06-10T10:30:14;15.68;;;8.30;;
73954;SDS011;62306;52.516;13.290;2023-06-10T10:32:43;14.55;;;9.55;;
73954;SDS011;62306;52.516;13.290;2023-06-10T10:35:24;23.77;;;8.43;;
73954;SDS011;62306;52.516;13.290;2023-06-10T10:37:52;18.05;;;7.45;;
73954;SDS011;62306;52.516;13.290;2023-06-10T10:40:20;19.42;;;8.23;;
73954;SDS011;62306;52.516;13.290;2023-06-10T10:42:50;13.98;;;6.65;;
73954;SDS011;62306;52.516;13.290;2023-06-10T10:45:17;11.23;;;6.38;;
73954;SDS011;62306;52.516;13.290;2023-06-10T10:47:45;13.18;;;6.00;;
73954;SDS011;62306;52.516;13.290;2023-06-10T10:50:13;10.77;;;5.93;;
73954;SDS011;62306;52.516;13.290;2023-06-10T10:52:51;6.18;;;4.97;;
73954;SDS011;62306;52.516;13.290;2023-06-10T10:55:19;11.32;;;6.03;;
73954;SDS011;62306;52.516;13.290;2023-06-10T10:57:54;7.55;;;6.05;;
73954;SDS011;62306;52.516;13.290;2023-06-10T11:00:28;8.02;;;5.25;;
73954;SDS011;62306;52.516;13.290;2023-06-10T11:02:59;6.95;;;6.10;;
73954;SDS011;62306;52.516;13.290;2023-06-10T11:05:35;7.15;;;5.05;;
73954;SDS011;62306;52.516;13.290;2023-06-10T11:08:04;7.82;;;5.80;;
73954;SDS011;62306;52.516;13.290;2023-06-10T11:10:32;12.55;;;5.78;;
73954;SDS011;62306;52.516;13.290;2023-06-10T11:13:02;9.80;;;5.60;;
73954;SDS011;62306;52.516;13.290;2023-06-10T11:18:07;14.85;;;5.53;;
73954;SDS011;62306;52.516;13.290;2023-06-10T11:20:56;8.98;;;5.35;;
73954;SDS011;62306;52.516;13.290;2023-06-10T11:23:35;8.82;;;5.60;;
73954;SDS011;62306;52.516;13.290;2023-06-10T11:26:11;8.82;;;5.78;;
73954;SDS011;62306;52.516;13.290;2023-06-10T11:28:41;12.48;;;4.90;;
73954;SDS011;62306;52.516;13.290;2023-06-10T11:31:27;7.97;;;4.93;;
73954;SDS011;62306;52.516;13.290;2023-06-10T11:33:55;7.85;;;5.57;;
73954;SDS011;62306;52.516;13.290;2023-06-10T11:36:23;8.98;;;5.95;;
73954;SDS011;62306;52.516;13.290;2023-06-10T11:38:53;10.18;;;5.75;;
73954;SDS011;62306;52.516;13.290;2023-06-10T11:41:23;8.40;;;5.30;;
73954;SDS011;62306;52.516;13.290;2023-06-10T11:43:53;9.70;;;5.65;;
73954;SDS011;62306;52.516;13.290;2023-06-10T11:46:21;10.65;;;6.88;;
73954;SDS011;62306;52.516;13.290;2023-06-10T11:48:48;10.70;;;5.90;;
73954;SDS011;62306;52.516;13.290;2023-06-10T11:51:15;11.73;;;7.03;;
73954;SDS011;62306;52.516;13.290;2023-06-10T11:53:43;7.45;;;5.60;;
73954;SDS011;62306;52.516;13.290;2023-06-10T11:56:10;9.48;;;5.50;;
73954;SDS011;62306;52.516;13.290;2023-06-10T11:58:37;11.57;;;5.65;;
73954;SDS011;62306;52.516;13.290;2023-06-10T12:01:11;6.32;;;5.05;;
73954;SDS011;62306;52.516;13.290;2023-06-10T12:03:45;8.07;;;5.18;;
73954;SDS011;62306;52.516;13.290;2023-06-10T12:06:12;10.80;;;5.63;;
73954;SDS011;62306;52.516;13.290;2023-06-10T12:08:41;7.40;;;5.03;;
73954;SDS011;62306;52.516;13.290;2023-06-10T12:11:08;5.68;;;5.10;;
73954;SDS011;62306;52.516;13.290;2023-06-10T12:13:36;6.45;;;5.07;;
73954;SDS011;62306;52.516;13.290;2023-06-10T12:16:06;7.53;;;5.35;;
73954;SDS011;62306;52.516;13.290;2023-06-10T12:18:35;8.38;;;5.85;;
73954;SDS011;62306;52.516;13.290;2023-06-10T12:21:02;11.98;;;6.40;;
73954;SDS011;62306;52.516;13.290;2023-06-10T12:23:29;9.60;;;7.05;;
73954;SDS011;62306;52.516;13.290;2023-06-10T12:25:57;12.60;;;7.47;;
73954;SDS011;62306;52.516;13.290;2023-06-10T12:28:26;10.05;;;7.15;;
73954;SDS011;62306;52.516;13.290;2023-06-10T12:31:07;10.45;;;7.05;;
73954;SDS011;62306;52.516;13.290;2023-06-10T12:33:36;9.15;;;6.53;;
73954;SDS011;62306;52.516;13.290;2023-06-10T12:36:03;11.63;;;6.55;;
73954;SDS011;62306;52.516;13.290;2023-06-10T12:38:30;10.20;;;5.82;;
73954;SDS011;62306;52.516;13.290;2023-06-10T12:41:01;8.48;;;5.65;;
73954;SDS011;62306;52.516;13.290;2023-06-10T12:43:30;13.57;;;6.10;;
73954;SDS011;62306;52.516;13.290;2023-06-10T12:46:07;9.82;;;5.90;;
73954;SDS011;62306;52.516;13.290;2023-06-10T12:48:36;8.43;;;6.25;;
73954;SDS011;62306;52.516;13.290;2023-06-10T12:51:16;10.30;;;6.90;;
73954;SDS011;62306;52.516;13.290;2023-06-10T12:53:43;10.02;;;6.57;;
73954;SDS011;62306;52.516;13.290;2023-06-10T12:56:10;7.05;;;6.30;;
73954;SDS011;62306;52.516;13.290;2023-06-10T12:58:37;8.32;;;6.43;;
73954;SDS011;62306;52.516;13.290;2023-06-10T13:01:04;11.40;;;7.13;;
73954;SDS011;62306;52.516;13.290;2023-06-10T13:03:31;12.18;;;7.40;;
73954;SDS011;62306;52.516;13.290;2023-06-10T13:05:59;13.70;;;7.90;;
73954;SDS011;62306;52.516;13.290;2023-06-10T13:08:26;12.23;;;7.82;;
73954;SDS011;62306;52.516;13.290;2023-06-10T13:10:53;12.40;;;7.57;;
73954;SDS011;62306;52.516;13.290;2023-06-10T13:13:20;12.38;;;7.80;;
73954;SDS011;62306;52.516;13.290;2023-06-10T13:15:46;13.27;;;8.00;;
73954;SDS011;62306;52.516;13.290;2023-06-10T13:18:14;10.35;;;8.38;;
73954;SDS011;62306;52.516;13.290;2023-06-10T13:20:42;10.38;;;8.75;;
73954;SDS011;62306;52.516;13.290;2023-06-10T13:23:11;13.35;;;8.07;;
73954;SDS011;62306;52.516;13.290;2023-06-10T13:25:38;11.55;;;8.38;;
73954;SDS011;62306;52.516;13.290;2023-06-10T13:28:05;13.68;;;8.52;;
73954;SDS011;62306;52.516;13.290;2023-06-10T13:30:32;10.25;;;7.57;;
73954;SDS011;62306;52.516;13.290;2023-06-10T13:32:59;12.90;;;8.23;;
73954;SDS011;62306;52.516;13.290;2023-06-10T13:35:26;14.13;;;8.52;;
73954;SDS011;62306;52.516;13.290;2023-06-10T13:37:53;13.52;;;8.13;;
73954;SDS011;62306;52.516;13.290;2023-06-10T13:40:21;12.48;;;9.30;;
73954;SDS011;62306;52.516;13.290;2023-06-10T13:42:48;10.38;;;8.38;;
73954;SDS011;62306;52.516;13.290;2023-06-10T13:45:17;11.60;;;8.63;;
73954;SDS011;62306;52.516;13.290;2023-06-10T13:47:44;19.27;;;8.13;;
73954;SDS011;62306;52.516;13.290;2023-06-10T13:50:11;18.27;;;8.73;;
73954;SDS011;62306;52.516;13.290;2023-06-10T13:52:38;16.92;;;8.00;;
73954;SDS011;62306;52.516;13.290;2023-06-10T13:55:05;13.10;;;9.65;;
73954;SDS011;62306;52.516;13.290;2023-06-10T13:57:34;9.38;;;8.32;;
73954;SDS011;62306;52.516;13.290;2023-06-10T14:00:00;19.92;;;11.05;;
73954;SDS011;62306;52.516;13.290;2023-06-10T14:02:28;16.40;;;7.90;;
73954;SDS011;62306;52.516;13.290;2023-06-10T14:04:55;9.27;;;7.72;;
73954;SDS011;62306;52.516;13.290;2023-06-10T14:07:22;14.60;;;8.00;;
73954;SDS011;62306;52.516;13.290;2023-06-10T14:09:51;12.77;;;8.35;;
73954;SDS011;62306;52.516;13.290;2023-06-10T14:12:17;14.25;;;7.82;;
73954;SDS011;62306;52.516;13.290;2023-06-10T14:14:46;10.95;;;6.97;;
73954;SDS011;62306;52.516;13.290;2023-06-10T14:17:13;8.88;;;7.82;;
73954;SDS011;62306;52.516;13.290;2023-06-10T14:19:39;16.38;;;7.55;;
73954;SDS011;62306;52.516;13.290;2023-06-10T14:22:06;14.95;;;8.27;;
73954;SDS011;62306;52.516;13.290;2023-06-10T14:24:33;12.52;;;7.88;;
73954;SDS011;62306;52.516;13.290;2023-06-10T14:27:01;8.60;;;7.70;;
73954;SDS011;62306;52.516;13.290;2023-06-10T14:29:28;10.10;;;8.05;;
73954;SDS011;62306;52.516;13.290;2023-06-10T14:31:58;10.20;;;7.22;;